KMGR/MGR METAR and TAF weather

Enter ICAO airport designator
Station Type Date Time Source
KMGR METAR 2020/01/17 22:35 UTC NOAA

KMGR 172235Z AUTO 09005KT 10SM CLR 16/03 A3044 RMK AO2


Station Type Date Time Source
KMGR Decoded METAR 2020/01/17 22:35 UTC NOAA

Moultrie, Moultrie Municipal Airport, GA, United States (KMGR) 31-05-05N 083-48-11W
Jan 17, 2020 - 05:35 PM EST / 2020.01.17 2235 UTC
Wind: from the E (090 degrees) at 6 MPH (5 KT):0
Visibility: 10 mile(s):0
Sky conditions: clear
Temperature: 60 F (16 C)
Dew Point: 37 F (3 C)
Relative Humidity: 41%
Pressure (altimeter): 30.44 in. Hg (1030 hPa)
ob: KMGR 172235Z AUTO 09005KT 10SM CLR 16/03 A3044 RMK AO2
cycle: 22

Station Type Date Time Source
KMGR TAF UTC NOAA

Error!

Example: see airport list